sensor_id;sensor_type;location;lat;lon;timestamp;P1;durP1;ratioP1;P2;durP2;ratioP2
14740;SDS011;7462;53.530;9.414;2022-12-08T00:01:53;9.00;;;8.07;;
14740;SDS011;7462;53.530;9.414;2022-12-08T00:04:22;9.13;;;7.90;;
14740;SDS011;7462;53.530;9.414;2022-12-08T00:06:50;8.73;;;7.50;;
14740;SDS011;7462;53.530;9.414;2022-12-08T00:09:35;9.73;;;8.10;;
14740;SDS011;7462;53.530;9.414;2022-12-08T00:12:06;9.20;;;7.83;;
14740;SDS011;7462;53.530;9.414;2022-12-08T00:14:35;9.07;;;7.90;;
14740;SDS011;7462;53.530;9.414;2022-12-08T00:17:06;9.90;;;8.13;;
14740;SDS011;7462;53.530;9.414;2022-12-08T00:19:35;7.80;;;7.10;;
14740;SDS011;7462;53.530;9.414;2022-12-08T00:22:04;9.83;;;7.90;;
14740;SDS011;7462;53.530;9.414;2022-12-08T00:24:34;8.77;;;7.73;;
14740;SDS011;7462;53.530;9.414;2022-12-08T00:27:05;8.57;;;7.77;;
14740;SDS011;7462;53.530;9.414;2022-12-08T00:29:33;8.27;;;7.17;;
14740;SDS011;7462;53.530;9.414;2022-12-08T00:32:01;9.03;;;7.23;;
14740;SDS011;7462;53.530;9.414;2022-12-08T00:34:31;7.57;;;6.73;;
14740;SDS011;7462;53.530;9.414;2022-12-08T00:36:59;13.37;;;7.33;;
14740;SDS011;7462;53.530;9.414;2022-12-08T00:39:27;8.90;;;7.13;;
14740;SDS011;7462;53.530;9.414;2022-12-08T00:41:55;6.97;;;6.27;;
14740;SDS011;7462;53.530;9.414;2022-12-08T00:44:39;8.10;;;6.50;;
14740;SDS011;7462;53.530;9.414;2022-12-08T00:47:07;7.63;;;6.30;;
14740;SDS011;7462;53.530;9.414;2022-12-08T00:49:37;6.77;;;6.07;;
14740;SDS011;7462;53.530;9.414;2022-12-08T00:52:06;10.60;;;7.17;;
14740;SDS011;7462;53.530;9.414;2022-12-08T00:54:34;6.73;;;5.83;;
14740;SDS011;7462;53.530;9.414;2022-12-08T00:57:02;7.77;;;6.80;;
14740;SDS011;7462;53.530;9.414;2022-12-08T00:59:30;7.17;;;6.13;;
14740;SDS011;7462;53.530;9.414;2022-12-08T01:01:58;7.77;;;6.17;;
14740;SDS011;7462;53.530;9.414;2022-12-08T01:04:26;8.43;;;6.17;;
14740;SDS011;7462;53.530;9.414;2022-12-08T01:06:56;9.00;;;5.53;;
14740;SDS011;7462;53.530;9.414;2022-12-08T01:09:24;8.67;;;5.93;;
14740;SDS011;7462;53.530;9.414;2022-12-08T01:11:52;7.07;;;6.17;;
14740;SDS011;7462;53.530;9.414;2022-12-08T01:14:20;6.43;;;5.60;;
14740;SDS011;7462;53.530;9.414;2022-12-08T01:16:48;6.53;;;5.87;;
14740;SDS011;7462;53.530;9.414;2022-12-08T01:19:16;6.10;;;5.50;;
14740;SDS011;7462;53.530;9.414;2022-12-08T01:21:45;5.97;;;5.23;;
14740;SDS011;7462;53.530;9.414;2022-12-08T01:24:16;5.83;;;5.00;;
14740;SDS011;7462;53.530;9.414;2022-12-08T01:26:46;5.63;;;4.80;;
14740;SDS011;7462;53.530;9.414;2022-12-08T01:29:14;7.53;;;4.93;;
14740;SDS011;7462;53.530;9.414;2022-12-08T01:31:42;5.77;;;4.27;;
14740;SDS011;7462;53.530;9.414;2022-12-08T01:34:10;6.63;;;4.33;;
14740;SDS011;7462;53.530;9.414;2022-12-08T01:36:39;5.50;;;4.80;;
14740;SDS011;7462;53.530;9.414;2022-12-08T01:39:09;5.60;;;4.43;;
14740;SDS011;7462;53.530;9.414;2022-12-08T01:41:42;4.93;;;4.30;;
14740;SDS011;7462;53.530;9.414;2022-12-08T01:47:18;7.07;;;4.30;;
14740;SDS011;7462;53.530;9.414;2022-12-08T01:49:47;5.07;;;4.40;;
14740;SDS011;7462;53.530;9.414;2022-12-08T01:52:15;6.07;;;4.67;;
14740;SDS011;7462;53.530;9.414;2022-12-08T01:54:48;6.57;;;4.77;;
14740;SDS011;7462;53.530;9.414;2022-12-08T01:57:21;5.17;;;3.83;;
14740;SDS011;7462;53.530;9.414;2022-12-08T01:59:58;5.03;;;4.10;;
14740;SDS011;7462;53.530;9.414;2022-12-08T02:02:33;5.23;;;3.93;;
14740;SDS011;7462;53.530;9.414;2022-12-08T02:05:06;5.20;;;4.00;;
14740;SDS011;7462;53.530;9.414;2022-12-08T02:07:35;5.23;;;3.70;;
14740;SDS011;7462;53.530;9.414;2022-12-08T02:10:04;6.27;;;3.80;;
14740;SDS011;7462;53.530;9.414;2022-12-08T02:12:34;5.43;;;3.90;;
14740;SDS011;7462;53.530;9.414;2022-12-08T02:15:02;4.57;;;3.43;;
14740;SDS011;7462;53.530;9.414;2022-12-08T02:17:34;6.00;;;4.00;;
14740;SDS011;7462;53.530;9.414;2022-12-08T02:23:15;4.83;;;3.80;;
14740;SDS011;7462;53.530;9.414;2022-12-08T02:26:01;4.03;;;3.17;;
14740;SDS011;7462;53.530;9.414;2022-12-08T02:29:13;3.63;;;3.17;;
14740;SDS011;7462;53.530;9.414;2022-12-08T02:32:04;4.37;;;3.00;;
14740;SDS011;7462;53.530;9.414;2022-12-08T02:34:50;3.70;;;3.23;;
14740;SDS011;7462;53.530;9.414;2022-12-08T02:37:25;4.50;;;2.97;;
14740;SDS011;7462;53.530;9.414;2022-12-08T02:39:58;4.30;;;3.43;;
14740;SDS011;7462;53.530;9.414;2022-12-08T02:42:34;6.57;;;3.67;;
14740;SDS011;7462;53.530;9.414;2022-12-08T02:45:10;3.87;;;3.50;;
14740;SDS011;7462;53.530;9.414;2022-12-08T02:47:41;4.37;;;3.40;;
14740;SDS011;7462;53.530;9.414;2022-12-08T02:50:11;4.33;;;3.37;;
14740;SDS011;7462;53.530;9.414;2022-12-08T02:52:40;5.00;;;3.27;;
14740;SDS011;7462;53.530;9.414;2022-12-08T02:55:18;3.60;;;3.20;;
14740;SDS011;7462;53.530;9.414;2022-12-08T03:00:51;4.03;;;3.33;;
14740;SDS011;7462;53.530;9.414;2022-12-08T03:03:30;5.17;;;3.30;;
14740;SDS011;7462;53.530;9.414;2022-12-08T03:06:10;4.90;;;3.17;;
14740;SDS011;7462;53.530;9.414;2022-12-08T03:08:49;3.43;;;3.03;;
14740;SDS011;7462;53.530;9.414;2022-12-08T03:11:23;3.77;;;2.67;;
14740;SDS011;7462;53.530;9.414;2022-12-08T03:13:55;2.60;;;2.40;;
14740;SDS011;7462;53.530;9.414;2022-12-08T03:16:27;2.30;;;1.80;;
14740;SDS011;7462;53.530;9.414;2022-12-08T03:18:58;2.47;;;2.00;;
14740;SDS011;7462;53.530;9.414;2022-12-08T03:21:31;2.97;;;1.90;;
14740;SDS011;7462;53.530;9.414;2022-12-08T03:24:01;1.87;;;1.70;;
14740;SDS011;7462;53.530;9.414;2022-12-08T03:26:33;2.17;;;1.70;;
14740;SDS011;7462;53.530;9.414;2022-12-08T03:29:07;2.03;;;1.50;;
14740;SDS011;7462;53.530;9.414;2022-12-08T03:31:36;1.50;;;1.40;;
14740;SDS011;7462;53.530;9.414;2022-12-08T03:34:08;1.97;;;1.30;;
14740;SDS011;7462;53.530;9.414;2022-12-08T03:36:39;1.40;;;1.30;;
14740;SDS011;7462;53.530;9.414;2022-12-08T03:39:07;1.80;;;1.70;;
14740;SDS011;7462;53.530;9.414;2022-12-08T03:41:35;1.90;;;1.80;;
14740;SDS011;7462;53.530;9.414;2022-12-08T03:44:04;1.97;;;1.80;;
14740;SDS011;7462;53.530;9.414;2022-12-08T03:46:32;2.57;;;1.93;;
14740;SDS011;7462;53.530;9.414;2022-12-08T03:49:00;2.20;;;2.00;;
14740;SDS011;7462;53.530;9.414;2022-12-08T03:51:28;1.97;;;1.67;;
14740;SDS011;7462;53.530;9.414;2022-12-08T03:53:57;4.53;;;2.30;;
14740;SDS011;7462;53.530;9.414;2022-12-08T03:56:26;2.40;;;2.20;;
14740;SDS011;7462;53.530;9.414;2022-12-08T03:58:55;2.00;;;1.80;;
14740;SDS011;7462;53.530;9.414;2022-12-08T04:01:24;2.60;;;2.10;;
14740;SDS011;7462;53.530;9.414;2022-12-08T04:03:52;2.70;;;2.13;;
14740;SDS011;7462;53.530;9.414;2022-12-08T04:06:21;2.80;;;2.50;;
14740;SDS011;7462;53.530;9.414;2022-12-08T04:08:49;2.60;;;2.30;;
14740;SDS011;7462;53.530;9.414;2022-12-08T04:11:19;2.47;;;2.27;;
14740;SDS011;7462;53.530;9.414;2022-12-08T04:13:47;2.77;;;2.10;;
14740;SDS011;7462;53.530;9.414;2022-12-08T04:16:16;2.40;;;2.20;;
14740;SDS011;7462;53.530;9.414;2022-12-08T04:18:46;2.30;;;2.10;;
14740;SDS011;7462;53.530;9.414;2022-12-08T04:21:14;2.70;;;2.40;;
14740;SDS011;7462;53.530;9.414;2022-12-08T04:23:42;3.00;;;2.57;;
14740;SDS011;7462;53.530;9.414;2022-12-08T04:26:11;2.77;;;2.40;;
14740;SDS011;7462;53.530;9.414;2022-12-08T04:28:41;2.77;;;2.47;;
14740;SDS011;7462;53.530;9.414;2022-12-08T04:31:09;2.80;;;2.50;;
14740;SDS011;7462;53.530;9.414;2022-12-08T04:33:37;2.80;;;2.60;;
14740;SDS011;7462;53.530;9.414;2022-12-08T04:36:06;2.80;;;2.60;;
14740;SDS011;7462;53.530;9.414;2022-12-08T04:38:35;2.43;;;2.23;;
14740;SDS011;7462;53.530;9.414;2022-12-08T04:41:03;2.20;;;2.00;;
14740;SDS011;7462;53.530;9.414;2022-12-08T04:43:31;2.57;;;2.37;;
14740;SDS011;7462;53.530;9.414;2022-12-08T04:46:00;2.37;;;2.17;;
14740;SDS011;7462;53.530;9.414;2022-12-08T04:48:32;1.90;;;1.80;;
14740;SDS011;7462;53.530;9.414;2022-12-08T04:51:00;2.20;;;1.80;;
14740;SDS011;7462;53.530;9.414;2022-12-08T04:53:28;1.70;;;1.60;;
14740;SDS011;7462;53.530;9.414;2022-12-08T04:55:56;1.90;;;1.80;;
14740;SDS011;7462;53.530;9.414;2022-12-08T04:58:24;2.07;;;1.97;;
14740;SDS011;7462;53.530;9.414;2022-12-08T05:00:52;2.13;;;1.97;;
14740;SDS011;7462;53.530;9.414;2022-12-08T05:03:21;2.30;;;2.10;;
14740;SDS011;7462;53.530;9.414;2022-12-08T05:05:54;2.50;;;2.30;;
14740;SDS011;7462;53.530;9.414;2022-12-08T05:08:22;2.40;;;2.20;;
14740;SDS011;7462;53.530;9.414;2022-12-08T05:10:50;2.50;;;2.30;;
14740;SDS011;7462;53.530;9.414;2022-12-08T05:13:18;2.77;;;2.50;;
14740;SDS011;7462;53.530;9.414;2022-12-08T05:15:46;3.00;;;2.70;;
14740;SDS011;7462;53.530;9.414;2022-12-08T05:18:14;3.10;;;2.80;;
14740;SDS011;7462;53.530;9.414;2022-12-08T05:20:44;2.87;;;2.67;;
14740;SDS011;7462;53.530;9.414;2022-12-08T05:23:12;3.40;;;3.10;;
14740;SDS011;7462;53.530;9.414;2022-12-08T05:25:40;3.20;;;3.00;;
14740;SDS011;7462;53.530;9.414;2022-12-08T05:28:08;3.50;;;3.20;;
14740;SDS011;7462;53.530;9.414;2022-12-08T05:30:56;3.40;;;3.10;;
14740;SDS011;7462;53.530;9.414;2022-12-08T05:33:25;3.20;;;2.90;;
14740;SDS011;7462;53.530;9.414;2022-12-08T05:35:54;4.90;;;3.17;;
14740;SDS011;7462;53.530;9.414;2022-12-08T05:38:22;3.80;;;3.40;;
14740;SDS011;7462;53.530;9.414;2022-12-08T05:40:50;4.93;;;4.00;;
14740;SDS011;7462;53.530;9.414;2022-12-08T05:43:18;4.13;;;3.73;;
14740;SDS011;7462;53.530;9.414;2022-12-08T05:45:46;3.93;;;3.50;;
14740;SDS011;7462;53.530;9.414;2022-12-08T05:48:14;4.07;;;3.77;;
14740;SDS011;7462;53.530;9.414;2022-12-08T05:50:44;5.80;;;3.70;;
14740;SDS011;7462;53.530;9.414;2022-12-08T05:53:14;4.30;;;3.90;;
14740;SDS011;7462;53.530;9.414;2022-12-08T05:55:42;4.53;;;4.13;;
14740;SDS011;7462;53.530;9.414;2022-12-08T05:58:11;4.70;;;4.10;;
14740;SDS011;7462;53.530;9.414;2022-12-08T06:00:40;4.77;;;4.37;;
14740;SDS011;7462;53.530;9.414;2022-12-08T06:03:09;4.60;;;4.10;;
14740;SDS011;7462;53.530;9.414;2022-12-08T06:05:38;6.53;;;4.13;;
14740;SDS011;7462;53.530;9.414;2022-12-08T06:08:07;7.03;;;5.23;;
14740;SDS011;7462;53.530;9.414;2022-12-08T06:10:38;6.93;;;5.50;;
14740;SDS011;7462;53.530;9.414;2022-12-08T06:13:06;5.93;;;5.13;;
14740;SDS011;7462;53.530;9.414;2022-12-08T06:15:35;5.63;;;4.80;;
14740;SDS011;7462;53.530;9.414;2022-12-08T06:18:04;5.67;;;4.93;;
14740;SDS011;7462;53.530;9.414;2022-12-08T06:20:33;5.40;;;4.90;;
14740;SDS011;7462;53.530;9.414;2022-12-08T06:23:01;4.87;;;4.30;;
14740;SDS011;7462;53.530;9.414;2022-12-08T06:25:29;5.67;;;5.07;;
14740;SDS011;7462;53.530;9.414;2022-12-08T06:27:58;5.80;;;4.17;;
14740;SDS011;7462;53.530;9.414;2022-12-08T06:30:26;5.53;;;4.97;;
14740;SDS011;7462;53.530;9.414;2022-12-08T06:32:54;5.10;;;4.60;;
14740;SDS011;7462;53.530;9.414;2022-12-08T06:35:22;4.60;;;4.20;;
14740;SDS011;7462;53.530;9.414;2022-12-08T06:37:50;5.60;;;4.53;;
14740;SDS011;7462;53.530;9.414;2022-12-08T06:40:18;4.67;;;4.17;;
14740;SDS011;7462;53.530;9.414;2022-12-08T06:42:46;4.57;;;4.00;;
14740;SDS011;7462;53.530;9.414;2022-12-08T06:45:16;5.27;;;3.77;;
14740;SDS011;7462;53.530;9.414;2022-12-08T06:47:44;4.17;;;3.87;;
14740;SDS011;7462;53.530;9.414;2022-12-08T06:50:12;4.20;;;3.80;;
14740;SDS011;7462;53.530;9.414;2022-12-08T06:52:41;4.00;;;3.60;;
14740;SDS011;7462;53.530;9.414;2022-12-08T06:55:26;4.33;;;3.83;;
14740;SDS011;7462;53.530;9.414;2022-12-08T06:58:14;3.87;;;3.57;;
14740;SDS011;7462;53.530;9.414;2022-12-08T07:00:45;5.13;;;4.40;;
14740;SDS011;7462;53.530;9.414;2022-12-08T07:03:13;4.30;;;3.90;;
14740;SDS011;7462;53.530;9.414;2022-12-08T07:05:41;4.73;;;3.80;;
14740;SDS011;7462;53.530;9.414;2022-12-08T07:08:09;3.93;;;3.53;;
14740;SDS011;7462;53.530;9.414;2022-12-08T07:10:38;4.60;;;4.00;;
14740;SDS011;7462;53.530;9.414;2022-12-08T07:13:06;4.10;;;3.70;;
14740;SDS011;7462;53.530;9.414;2022-12-08T07:15:34;4.50;;;4.10;;
14740;SDS011;7462;53.530;9.414;2022-12-08T07:18:03;4.27;;;3.70;;
14740;SDS011;7462;53.530;9.414;2022-12-08T07:20:31;4.97;;;3.40;;
14740;SDS011;7462;53.530;9.414;2022-12-08T07:22:59;4.03;;;3.73;;
14740;SDS011;7462;53.530;9.414;2022-12-08T07:25:27;4.77;;;3.63;;
14740;SDS011;7462;53.530;9.414;2022-12-08T07:27:55;4.30;;;3.80;;
14740;SDS011;7462;53.530;9.414;2022-12-08T07:30:23;5.27;;;4.10;;
14740;SDS011;7462;53.530;9.414;2022-12-08T07:32:51;4.73;;;4.30;;
14740;SDS011;7462;53.530;9.414;2022-12-08T07:35:21;5.80;;;5.00;;
14740;SDS011;7462;53.530;9.414;2022-12-08T07:37:49;5.67;;;5.07;;
14740;SDS011;7462;53.530;9.414;2022-12-08T07:40:17;6.37;;;5.20;;
14740;SDS011;7462;53.530;9.414;2022-12-08T07:42:45;6.57;;;5.27;;
14740;SDS011;7462;53.530;9.414;2022-12-08T07:45:13;7.40;;;5.63;;
14740;SDS011;7462;53.530;9.414;2022-12-08T07:47:41;6.90;;;5.33;;
14740;SDS011;7462;53.530;9.414;2022-12-08T07:50:09;6.03;;;4.80;;
14740;SDS011;7462;53.530;9.414;2022-12-08T07:52:38;5.67;;;5.00;;
14740;SDS011;7462;53.530;9.414;2022-12-08T07:55:07;5.90;;;5.00;;
14740;SDS011;7462;53.530;9.414;2022-12-08T07:57:35;6.13;;;4.83;;
14740;SDS011;7462;53.530;9.414;2022-12-08T08:00:04;6.00;;;5.40;;
14740;SDS011;7462;53.530;9.414;2022-12-08T08:02:36;5.37;;;4.60;;
14740;SDS011;7462;53.530;9.414;2022-12-08T08:05:05;5.30;;;4.80;;
14740;SDS011;7462;53.530;9.414;2022-12-08T08:07:34;6.13;;;4.77;;
14740;SDS011;7462;53.530;9.414;2022-12-08T08:10:04;5.83;;;5.27;;
14740;SDS011;7462;53.530;9.414;2022-12-08T08:12:33;5.47;;;4.97;;
14740;SDS011;7462;53.530;9.414;2022-12-08T08:15:02;5.10;;;4.50;;
14740;SDS011;7462;53.530;9.414;2022-12-08T08:17:32;5.60;;;4.47;;
14740;SDS011;7462;53.530;9.414;2022-12-08T08:20:02;5.03;;;4.20;;
14740;SDS011;7462;53.530;9.414;2022-12-08T08:22:32;5.13;;;4.17;;
14740;SDS011;7462;53.530;9.414;2022-12-08T08:25:01;4.20;;;3.80;;
14740;SDS011;7462;53.530;9.414;2022-12-08T08:27:30;4.40;;;3.83;;
14740;SDS011;7462;53.530;9.414;2022-12-08T08:29:58;4.53;;;3.60;;
14740;SDS011;7462;53.530;9.414;2022-12-08T08:32:26;3.90;;;3.50;;
14740;SDS011;7462;53.530;9.414;2022-12-08T08:34:54;3.70;;;3.40;;
14740;SDS011;7462;53.530;9.414;2022-12-08T08:37:22;3.90;;;3.30;;
14740;SDS011;7462;53.530;9.414;2022-12-08T08:39:50;3.93;;;3.43;;
14740;SDS011;7462;53.530;9.414;2022-12-08T08:42:19;3.97;;;3.57;;
14740;SDS011;7462;53.530;9.414;2022-12-08T08:44:48;3.93;;;3.53;;
14740;SDS011;7462;53.530;9.414;2022-12-08T08:47:16;4.50;;;3.50;;
14740;SDS011;7462;53.530;9.414;2022-12-08T08:49:44;3.97;;;3.57;;
14740;SDS011;7462;53.530;9.414;2022-12-08T08:52:12;3.63;;;3.33;;
14740;SDS011;7462;53.530;9.414;2022-12-08T08:54:40;3.77;;;3.37;;
14740;SDS011;7462;53.530;9.414;2022-12-08T08:57:08;3.33;;;3.03;;
14740;SDS011;7462;53.530;9.414;2022-12-08T08:59:36;3.80;;;3.40;;
14740;SDS011;7462;53.530;9.414;2022-12-08T09:02:07;3.80;;;3.40;;
14740;SDS011;7462;53.530;9.414;2022-12-08T09:04:41;3.93;;;2.70;;
14740;SDS011;7462;53.530;9.414;2022-12-08T09:07:10;3.53;;;2.93;;
14740;SDS011;7462;53.530;9.414;2022-12-08T09:09:38;3.40;;;3.10;;
14740;SDS011;7462;53.530;9.414;2022-12-08T09:12:06;2.30;;;2.10;;
14740;SDS011;7462;53.530;9.414;2022-12-08T09:14:35;2.90;;;2.70;;
14740;SDS011;7462;53.530;9.414;2022-12-08T09:17:03;3.13;;;2.80;;
14740;SDS011;7462;53.530;9.414;2022-12-08T09:19:33;2.77;;;2.57;;
14740;SDS011;7462;53.530;9.414;2022-12-08T09:22:01;2.93;;;2.63;;
14740;SDS011;7462;53.530;9.414;2022-12-08T09:24:31;3.23;;;2.63;;
14740;SDS011;7462;53.530;9.414;2022-12-08T09:26:59;3.73;;;3.00;;
14740;SDS011;7462;53.530;9.414;2022-12-08T09:29:27;3.30;;;2.70;;
14740;SDS011;7462;53.530;9.414;2022-12-08T09:32:01;3.43;;;3.00;;
14740;SDS011;7462;53.530;9.414;2022-12-08T09:34:31;3.43;;;2.77;;
14740;SDS011;7462;53.530;9.414;2022-12-08T09:36:59;3.17;;;2.87;;
14740;SDS011;7462;53.530;9.414;2022-12-08T09:39:27;3.37;;;3.00;;
14740;SDS011;7462;53.530;9.414;2022-12-08T09:41:56;3.57;;;3.00;;
14740;SDS011;7462;53.530;9.414;2022-12-08T09:44:37;3.10;;;2.80;;
14740;SDS011;7462;53.530;9.414;2022-12-08T09:47:21;3.43;;;3.13;;
14740;SDS011;7462;53.530;9.414;2022-12-08T09:50:03;3.40;;;3.10;;
14740;SDS011;7462;53.530;9.414;2022-12-08T09:52:39;3.13;;;2.80;;
14740;SDS011;7462;53.530;9.414;2022-12-08T09:55:14;3.30;;;2.73;;
14740;SDS011;7462;53.530;9.414;2022-12-08T09:57:48;3.63;;;3.03;;
14740;SDS011;7462;53.530;9.414;2022-12-08T10:00:23;3.40;;;3.10;;
14740;SDS011;7462;53.530;9.414;2022-12-08T10:02:51;3.20;;;2.90;;
14740;SDS011;7462;53.530;9.414;2022-12-08T10:05:21;3.93;;;2.77;;
14740;SDS011;7462;53.530;9.414;2022-12-08T10:07:53;3.30;;;2.83;;
14740;SDS011;7462;53.530;9.414;2022-12-08T10:10:32;3.63;;;2.70;;
14740;SDS011;7462;53.530;9.414;2022-12-08T10:13:06;3.00;;;2.60;;
14740;SDS011;7462;53.530;9.414;2022-12-08T10:15:43;4.00;;;2.87;;
14740;SDS011;7462;53.530;9.414;2022-12-08T10:18:14;3.17;;;2.70;;
14740;SDS011;7462;53.530;9.414;2022-12-08T10:20:46;2.80;;;2.57;;
14740;SDS011;7462;53.530;9.414;2022-12-08T10:23:19;2.77;;;2.57;;
14740;SDS011;7462;53.530;9.414;2022-12-08T10:25:54;2.67;;;2.47;;
14740;SDS011;7462;53.530;9.414;2022-12-08T10:28:27;3.00;;;2.80;;
14740;SDS011;7462;53.530;9.414;2022-12-08T10:30:55;2.60;;;2.40;;
14740;SDS011;7462;53.530;9.414;2022-12-08T10:33:23;3.10;;;2.77;;
14740;SDS011;7462;53.530;9.414;2022-12-08T10:35:53;3.00;;;2.80;;
14740;SDS011;7462;53.530;9.414;2022-12-08T10:38:25;3.30;;;3.00;;
14740;SDS011;7462;53.530;9.414;2022-12-08T10:40:58;3.20;;;2.90;;
14740;SDS011;7462;53.530;9.414;2022-12-08T10:43:30;3.47;;;3.17;;
14740;SDS011;7462;53.530;9.414;2022-12-08T10:46:07;3.40;;;3.10;;
14740;SDS011;7462;53.530;9.414;2022-12-08T10:48:45;3.50;;;3.20;;
14740;SDS011;7462;53.530;9.414;2022-12-08T10:51:23;3.60;;;3.30;;
14740;SDS011;7462;53.530;9.414;2022-12-08T10:53:53;4.20;;;3.77;;
14740;SDS011;7462;53.530;9.414;2022-12-08T10:56:23;4.40;;;4.00;;
14740;SDS011;7462;53.530;9.414;2022-12-08T11:01:41;3.90;;;3.50;;
14740;SDS011;7462;53.530;9.414;2022-12-08T11:04:14;3.43;;;3.13;;
14740;SDS011;7462;53.530;9.414;2022-12-08T11:06:46;4.27;;;3.87;;
14740;SDS011;7462;53.530;9.414;2022-12-08T11:09:22;3.67;;;3.37;;
14740;SDS011;7462;53.530;9.414;2022-12-08T11:11:57;3.30;;;3.00;;
14740;SDS011;7462;53.530;9.414;2022-12-08T11:14:27;4.00;;;2.83;;
14740;SDS011;7462;53.530;9.414;2022-12-08T11:17:01;3.47;;;3.03;;
14740;SDS011;7462;53.530;9.414;2022-12-08T11:19:32;3.20;;;2.90;;
14740;SDS011;7462;53.530;9.414;2022-12-08T11:24:57;3.80;;;2.20;;
14740;SDS011;7462;53.530;9.414;2022-12-08T11:27:28;3.00;;;2.70;;
14740;SDS011;7462;53.530;9.414;2022-12-08T11:29:59;3.10;;;2.33;;
14740;SDS011;7462;53.530;9.414;2022-12-08T11:32:32;3.83;;;2.40;;
14740;SDS011;7462;53.530;9.414;2022-12-08T11:35:01;2.20;;;2.00;;
14740;SDS011;7462;53.530;9.414;2022-12-08T11:37:34;2.43;;;2.23;;
14740;SDS011;7462;53.530;9.414;2022-12-08T11:40:06;2.23;;;2.03;;
14740;SDS011;7462;53.530;9.414;2022-12-08T11:42:46;2.00;;;1.90;;
14740;SDS011;7462;53.530;9.414;2022-12-08T11:45:20;2.70;;;2.50;;
14740;SDS011;7462;53.530;9.414;2022-12-08T11:47:55;2.37;;;2.10;;
14740;SDS011;7462;53.530;9.414;2022-12-08T11:50:30;2.23;;;1.77;;
14740;SDS011;7462;53.530;9.414;2022-12-08T11:53:12;2.20;;;2.00;;
14740;SDS011;7462;53.530;9.414;2022-12-08T11:55:46;2.17;;;1.90;;
14740;SDS011;7462;53.530;9.414;2022-12-08T11:58:19;2.13;;;1.60;;
14740;SDS011;7462;53.530;9.414;2022-12-08T12:00:50;1.80;;;1.50;;
14740;SDS011;7462;53.530;9.414;2022-12-08T12:03:21;1.77;;;1.67;;
14740;SDS011;7462;53.530;9.414;2022-12-08T12:05:59;1.77;;;1.50;;
14740;SDS011;7462;53.530;9.414;2022-12-08T12:09:03;1.90;;;1.80;;
14740;SDS011;7462;53.530;9.414;2022-12-08T12:11:40;2.13;;;1.93;;
14740;SDS011;7462;53.530;9.414;2022-12-08T12:14:42;1.80;;;1.70;;
14740;SDS011;7462;53.530;9.414;2022-12-08T12:17:25;2.10;;;1.90;;
14740;SDS011;7462;53.530;9.414;2022-12-08T12:20:08;1.83;;;1.73;;
14740;SDS011;7462;53.530;9.414;2022-12-08T12:22:42;1.90;;;1.70;;
14740;SDS011;7462;53.530;9.414;2022-12-08T12:25:19;2.93;;;1.70;;
14740;SDS011;7462;53.530;9.414;2022-12-08T12:27:48;2.97;;;1.80;;
14740;SDS011;7462;53.530;9.414;2022-12-08T12:30:23;1.67;;;1.57;;
14740;SDS011;7462;53.530;9.414;2022-12-08T12:32:53;3.67;;;1.50;;
14740;SDS011;7462;53.530;9.414;2022-12-08T12:35:26;1.90;;;1.60;;
14740;SDS011;7462;53.530;9.414;2022-12-08T12:38:00;2.10;;;1.80;;
14740;SDS011;7462;53.530;9.414;2022-12-08T12:40:57;2.33;;;1.57;;
14740;SDS011;7462;53.530;9.414;2022-12-08T12:43:29;2.17;;;1.90;;
14740;SDS011;7462;53.530;9.414;2022-12-08T12:52:44;1.87;;;1.63;;
14740;SDS011;7462;53.530;9.414;2022-12-08T13:04:32;2.40;;;2.20;;
14740;SDS011;7462;53.530;9.414;2022-12-08T13:07:02;5.60;;;2.23;;
14740;SDS011;7462;53.530;9.414;2022-12-08T13:09:32;2.53;;;2.27;;
14740;SDS011;7462;53.530;9.414;2022-12-08T13:12:07;3.10;;;2.17;;
14740;SDS011;7462;53.530;9.414;2022-12-08T13:14:43;3.37;;;2.67;;
14740;SDS011;7462;53.530;9.414;2022-12-08T13:17:14;3.27;;;2.77;;
14740;SDS011;7462;53.530;9.414;2022-12-08T13:19:49;2.70;;;2.50;;
14740;SDS011;7462;53.530;9.414;2022-12-08T13:28:34;4.83;;;2.73;;
14740;SDS011;7462;53.530;9.414;2022-12-08T13:31:48;3.67;;;2.93;;
14740;SDS011;7462;53.530;9.414;2022-12-08T13:34:19;3.03;;;2.60;;
14740;SDS011;7462;53.530;9.414;2022-12-08T13:36:54;2.90;;;2.70;;
14740;SDS011;7462;53.530;9.414;2022-12-08T13:39:29;3.10;;;2.80;;
14740;SDS011;7462;53.530;9.414;2022-12-08T13:42:04;4.10;;;3.10;;
14740;SDS011;7462;53.530;9.414;2022-12-08T13:44:42;3.70;;;3.10;;
14740;SDS011;7462;53.530;9.414;2022-12-08T13:47:33;3.23;;;2.93;;
14740;SDS011;7462;53.530;9.414;2022-12-08T13:50:25;4.17;;;2.97;;
14740;SDS011;7462;53.530;9.414;2022-12-08T13:53:17;3.30;;;2.87;;
14740;SDS011;7462;53.530;9.414;2022-12-08T13:56:09;4.03;;;2.90;;
14740;SDS011;7462;53.530;9.414;2022-12-08T13:59:22;4.00;;;3.03;;
14740;SDS011;7462;53.530;9.414;2022-12-08T14:01:55;3.93;;;3.63;;
14740;SDS011;7462;53.530;9.414;2022-12-08T14:04:25;4.77;;;3.63;;
14740;SDS011;7462;53.530;9.414;2022-12-08T14:07:14;3.83;;;3.53;;
14740;SDS011;7462;53.530;9.414;2022-12-08T14:09:42;4.03;;;3.53;;
14740;SDS011;7462;53.530;9.414;2022-12-08T14:12:15;3.83;;;3.23;;
14740;SDS011;7462;53.530;9.414;2022-12-08T14:14:46;4.37;;;3.80;;
14740;SDS011;7462;53.530;9.414;2022-12-08T14:17:33;4.03;;;3.63;;
14740;SDS011;7462;53.530;9.414;2022-12-08T14:20:02;3.83;;;3.43;;
14740;SDS011;7462;53.530;9.414;2022-12-08T14:22:40;3.47;;;3.13;;
14740;SDS011;7462;53.530;9.414;2022-12-08T14:25:10;3.80;;;3.27;;
14740;SDS011;7462;53.530;9.414;2022-12-08T14:27:40;4.53;;;3.17;;
14740;SDS011;7462;53.530;9.414;2022-12-08T14:30:14;4.10;;;3.73;;
14740;SDS011;7462;53.530;9.414;2022-12-08T14:32:48;4.07;;;3.43;;
14740;SDS011;7462;53.530;9.414;2022-12-08T14:35:18;5.27;;;3.97;;
14740;SDS011;7462;53.530;9.414;2022-12-08T14:37:49;5.03;;;3.83;;
14740;SDS011;7462;53.530;9.414;2022-12-08T14:40:21;5.43;;;3.80;;
14740;SDS011;7462;53.530;9.414;2022-12-08T14:42:51;4.50;;;3.40;;
14740;SDS011;7462;53.530;9.414;2022-12-08T14:45:20;4.10;;;3.63;;
14740;SDS011;7462;53.530;9.414;2022-12-08T14:47:50;7.07;;;3.50;;
14740;SDS011;7462;53.530;9.414;2022-12-08T14:50:37;3.47;;;3.13;;
14740;SDS011;7462;53.530;9.414;2022-12-08T14:53:12;3.20;;;2.83;;
14740;SDS011;7462;53.530;9.414;2022-12-08T14:55:43;3.60;;;3.30;;
14740;SDS011;7462;53.530;9.414;2022-12-08T14:58:16;2.63;;;2.43;;
14740;SDS011;7462;53.530;9.414;2022-12-08T15:00:47;3.47;;;3.03;;
14740;SDS011;7462;53.530;9.414;2022-12-08T15:03:29;3.27;;;2.73;;
14740;SDS011;7462;53.530;9.414;2022-12-08T15:05:58;3.63;;;3.30;;
14740;SDS011;7462;53.530;9.414;2022-12-08T15:08:32;4.17;;;2.97;;
14740;SDS011;7462;53.530;9.414;2022-12-08T15:11:17;3.77;;;3.13;;
14740;SDS011;7462;53.530;9.414;2022-12-08T15:13:56;4.13;;;3.13;;
14740;SDS011;7462;53.530;9.414;2022-12-08T15:16:25;4.40;;;2.67;;
14740;SDS011;7462;53.530;9.414;2022-12-08T15:19:13;3.23;;;2.50;;
14740;SDS011;7462;53.530;9.414;2022-12-08T15:21:43;3.33;;;2.20;;
14740;SDS011;7462;53.530;9.414;2022-12-08T15:24:12;4.17;;;2.30;;
14740;SDS011;7462;53.530;9.414;2022-12-08T15:26:42;2.47;;;2.20;;
14740;SDS011;7462;53.530;9.414;2022-12-08T15:29:16;2.77;;;2.47;;
14740;SDS011;7462;53.530;9.414;2022-12-08T15:31:46;3.47;;;2.63;;
14740;SDS011;7462;53.530;9.414;2022-12-08T15:34:16;3.10;;;2.80;;
14740;SDS011;7462;53.530;9.414;2022-12-08T15:36:44;3.33;;;2.97;;
14740;SDS011;7462;53.530;9.414;2022-12-08T15:42:03;5.10;;;3.70;;
14740;SDS011;7462;53.530;9.414;2022-12-08T15:44:36;5.03;;;3.93;;
14740;SDS011;7462;53.530;9.414;2022-12-08T15:47:04;6.50;;;4.27;;
14740;SDS011;7462;53.530;9.414;2022-12-08T15:49:38;7.50;;;4.97;;
14740;SDS011;7462;53.530;9.414;2022-12-08T15:52:08;6.43;;;4.77;;
14740;SDS011;7462;53.530;9.414;2022-12-08T15:54:40;5.13;;;4.63;;
14740;SDS011;7462;53.530;9.414;2022-12-08T15:57:16;5.40;;;4.90;;
14740;SDS011;7462;53.530;9.414;2022-12-08T16:00:09;6.60;;;5.30;;
14740;SDS011;7462;53.530;9.414;2022-12-08T16:03:19;6.90;;;5.73;;
14740;SDS011;7462;53.530;9.414;2022-12-08T16:06:10;8.17;;;7.13;;
14740;SDS011;7462;53.530;9.414;2022-12-08T16:09:03;7.40;;;6.60;;
14740;SDS011;7462;53.530;9.414;2022-12-08T16:11:38;9.70;;;8.00;;